createdAt,value
2023-01-10T00:00:03.226Z,87.00
2023-01-10T00:00:12.682Z,87.00
2023-01-10T00:00:22.109Z,86.80
2023-01-10T00:00:31.569Z,86.90
2023-01-10T00:00:40.943Z,87.00
2023-01-10T00:00:50.327Z,86.90
2023-01-10T00:00:59.755Z,87.00
2023-01-10T00:01:09.181Z,86.90
2023-01-10T00:01:18.831Z,87.00
2023-01-10T00:01:28.231Z,86.80
2023-01-10T00:01:37.613Z,86.70
2023-01-10T00:01:47.064Z,86.70
2023-01-10T00:01:56.455Z,86.60
2023-01-10T00:02:15.378Z,86.60
2023-01-10T00:02:24.763Z,86.40
2023-01-10T00:02:34.147Z,86.40
2023-01-10T00:02:43.506Z,86.50
2023-01-10T00:02:52.971Z,86.60
2023-01-10T00:03:02.406Z,86.70
2023-01-10T00:03:11.681Z,86.70
2023-01-10T00:03:21.076Z,86.70
2023-01-10T00:03:30.485Z,86.80
2023-01-10T00:03:39.888Z,86.80
2023-01-10T00:03:49.268Z,86.80
2023-01-10T00:03:58.703Z,86.90
2023-01-10T00:04:08.106Z,87.00
2023-01-10T00:04:17.600Z,87.00
2023-01-10T00:04:26.971Z,87.00
2023-01-10T00:04:45.784Z,87.00
2023-01-10T00:04:55.144Z,87.00
2023-01-10T00:05:04.541Z,87.00
2023-01-10T00:05:13.986Z,87.00
2023-01-10T00:05:23.418Z,87.10
2023-01-10T00:05:32.822Z,87.10
2023-01-10T00:05:42.246Z,87.10
2023-01-10T00:05:51.646Z,87.10
2023-01-10T00:06:01.058Z,87.10
2023-01-10T00:06:10.451Z,87.00
2023-01-10T00:06:19.853Z,87.00
2023-01-10T00:06:29.262Z,87.10
2023-01-10T00:06:38.705Z,87.10
2023-01-10T00:06:48.118Z,87.20
2023-01-10T00:06:57.544Z,87.30
2023-01-10T00:07:06.921Z,87.40
2023-01-10T00:07:25.703Z,87.50
2023-01-10T00:07:35.179Z,87.60
2023-01-10T00:07:44.563Z,87.70
2023-01-10T00:07:53.981Z,87.80
2023-01-10T00:08:03.377Z,87.90
2023-01-10T00:08:12.805Z,88.00
2023-01-10T00:08:22.218Z,88.10
2023-01-10T00:08:31.638Z,88.20
2023-01-10T00:08:41.028Z,88.20
2023-01-10T00:08:50.442Z,88.20
2023-01-10T00:08:59.863Z,88.20
2023-01-10T00:09:09.267Z,88.20
2023-01-10T00:09:18.669Z,88.20
2023-01-10T00:09:28.086Z,88.20
2023-01-10T00:09:37.482Z,88.20
2023-01-10T00:09:46.897Z,88.10
2023-01-10T00:10:05.734Z,87.80
2023-01-10T00:10:15.140Z,87.70
2023-01-10T00:10:24.573Z,87.70
2023-01-10T00:10:33.984Z,87.70
2023-01-10T00:10:43.383Z,87.70
2023-01-10T00:10:52.796Z,87.60
2023-01-10T00:11:02.207Z,87.50
2023-01-10T00:11:11.625Z,87.50
2023-01-10T00:11:21.047Z,87.50
2023-01-10T00:11:30.458Z,87.50
2023-01-10T00:11:39.855Z,87.50
2023-01-10T00:11:49.261Z,87.50
2023-01-10T00:11:58.678Z,87.50
2023-01-10T00:12:08.066Z,87.50
2023-01-10T00:12:17.452Z,87.50
2023-01-10T00:12:26.853Z,87.50
2023-01-10T00:12:45.700Z,87.60
2023-01-10T00:12:55.111Z,87.60
2023-01-10T00:13:04.571Z,87.70
2023-01-10T00:13:14.017Z,87.80
2023-01-10T00:13:23.417Z,87.90
2023-01-10T00:13:32.803Z,87.90
2023-01-10T00:13:42.231Z,87.90
2023-01-10T00:13:53.566Z,87.90
2023-01-10T00:14:02.988Z,88.10
2023-01-10T00:14:12.409Z,88.10
2023-01-10T00:14:21.799Z,88.10
2023-01-10T00:14:31.210Z,88.00
2023-01-10T00:14:40.605Z,88.00
2023-01-10T00:14:50.004Z,87.90
2023-01-10T00:14:59.405Z,87.90
2023-01-10T00:15:08.811Z,88.00
2023-01-10T00:15:18.211Z,88.10
2023-01-10T00:15:27.633Z,88.10
2023-01-10T00:15:37.099Z,88.10
2023-01-10T00:15:55.960Z,88.20
2023-01-10T00:16:05.374Z,88.10
2023-01-10T00:16:14.754Z,88.10
2023-01-10T00:16:24.124Z,88.10
2023-01-10T00:16:33.487Z,88.10
2023-01-10T00:16:42.882Z,88.10
2023-01-10T00:16:52.302Z,87.90
2023-01-10T00:17:01.674Z,87.90
2023-01-10T00:17:11.085Z,87.80
2023-01-10T00:17:20.522Z,87.80
2023-01-10T00:17:29.936Z,87.80
2023-01-10T00:17:39.367Z,87.80
2023-01-10T00:17:48.770Z,87.80
2023-01-10T00:17:58.181Z,87.90
2023-01-10T00:18:07.582Z,88.10
2023-01-10T00:18:17.011Z,88.00
2023-01-10T00:18:35.828Z,88.00
2023-01-10T00:18:45.215Z,88.10
2023-01-10T00:18:54.661Z,88.10
2023-01-10T00:19:04.062Z,88.20
2023-01-10T00:19:13.478Z,88.20
2023-01-10T00:19:22.886Z,88.20
2023-01-10T00:19:32.291Z,88.00
2023-01-10T00:19:41.725Z,88.10
2023-01-10T00:19:51.094Z,88.10
2023-01-10T00:20:00.481Z,88.00
2023-01-10T00:20:09.874Z,88.00
2023-01-10T00:20:19.300Z,88.10
2023-01-10T00:20:28.659Z,88.00
2023-01-10T00:20:38.126Z,88.00
2023-01-10T00:20:47.521Z,88.00
2023-01-10T00:20:57.004Z,88.00
2023-01-10T00:21:15.812Z,88.00
2023-01-10T00:21:25.232Z,88.10
2023-01-10T00:21:34.649Z,88.10
2023-01-10T00:21:44.072Z,88.20
2023-01-10T00:21:53.479Z,88.30
2023-01-10T00:22:02.861Z,88.30
2023-01-10T00:22:12.274Z,88.30
2023-01-10T00:22:21.761Z,88.30
2023-01-10T00:22:31.173Z,88.30
2023-01-10T00:22:40.585Z,88.30
2023-01-10T00:22:50.006Z,88.40
2023-01-10T00:22:59.414Z,88.40
2023-01-10T00:23:08.900Z,88.30
2023-01-10T00:23:18.336Z,88.40
2023-01-10T00:23:27.699Z,88.20
2023-01-10T00:23:37.121Z,88.10
2023-01-10T00:23:46.530Z,88.10
2023-01-10T00:24:05.372Z,88.00
2023-01-10T00:24:14.793Z,88.00
2023-01-10T00:24:24.230Z,88.00
2023-01-10T00:24:33.596Z,88.10
2023-01-10T00:24:43.030Z,88.10
2023-01-10T00:24:52.408Z,88.20
2023-01-10T00:25:01.807Z,88.30
2023-01-10T00:25:11.174Z,88.30
2023-01-10T00:25:20.584Z,88.40
2023-01-10T00:25:29.972Z,88.50
2023-01-10T00:25:39.423Z,88.50
2023-01-10T00:25:48.812Z,88.50
2023-01-10T00:25:58.206Z,88.60
2023-01-10T00:26:07.604Z,88.60
2023-01-10T00:26:17.048Z,88.70
2023-01-10T00:26:26.527Z,88.70
2023-01-10T00:26:45.322Z,88.90
2023-01-10T00:26:54.747Z,88.80
2023-01-10T00:27:04.155Z,89.00
2023-01-10T00:27:13.531Z,89.10
2023-01-10T00:27:22.954Z,89.30
2023-01-10T00:27:32.365Z,89.40
2023-01-10T00:27:41.784Z,89.50
2023-01-10T00:27:51.217Z,89.40
2023-01-10T00:28:00.619Z,89.40
2023-01-10T00:28:10.008Z,89.30
2023-01-10T00:28:22.238Z,89.30
2023-01-10T00:28:31.643Z,89.20
2023-01-10T00:28:41.071Z,89.20
2023-01-10T00:28:50.494Z,89.10
2023-01-10T00:28:59.883Z,89.10
2023-01-10T00:29:09.324Z,89.10
2023-01-10T00:29:18.737Z,89.10
2023-01-10T00:29:28.136Z,89.20
2023-01-10T00:29:37.559Z,89.20
2023-01-10T00:29:46.961Z,89.20
2023-01-10T00:30:05.780Z,89.30
2023-01-10T00:30:15.190Z,89.40
2023-01-10T00:30:24.559Z,89.40
2023-01-10T00:30:33.993Z,89.40
2023-01-10T00:30:43.385Z,89.40
2023-01-10T00:30:52.815Z,89.40
2023-01-10T00:31:02.237Z,89.40
2023-01-10T00:31:11.660Z,89.40
2023-01-10T00:31:21.103Z,89.30
2023-01-10T00:31:30.502Z,89.40
2023-01-10T00:31:39.829Z,89.40
2023-01-10T00:31:49.252Z,89.50
2023-01-10T00:31:58.648Z,89.50
2023-01-10T00:32:08.045Z,89.40
2023-01-10T00:32:17.459Z,89.20
2023-01-10T00:32:26.847Z,89.10
2023-01-10T00:32:45.616Z,89.30
2023-01-10T00:32:55.045Z,89.30
2023-01-10T00:33:04.524Z,89.30
2023-01-10T00:33:13.942Z,89.30
2023-01-10T00:33:23.385Z,89.30
2023-01-10T00:33:32.783Z,89.30
2023-01-10T00:33:42.190Z,89.30
2023-01-10T00:33:51.601Z,89.30
2023-01-10T00:34:01.032Z,89.40
2023-01-10T00:34:10.454Z,89.40
2023-01-10T00:34:19.859Z,89.50
2023-01-10T00:34:29.266Z,89.50
2023-01-10T00:34:38.675Z,89.50
2023-01-10T00:34:48.098Z,89.50
2023-01-10T00:34:57.490Z,89.60
2023-01-10T00:35:06.895Z,89.50
2023-01-10T00:35:25.723Z,89.40
2023-01-10T00:35:35.158Z,89.40
2023-01-10T00:35:44.571Z,89.40
2023-01-10T00:35:53.985Z,89.40
2023-01-10T00:36:03.370Z,89.40
2023-01-10T00:36:12.794Z,89.40
2023-01-10T00:36:22.187Z,89.40
2023-01-10T00:36:31.591Z,89.40
2023-01-10T00:36:40.987Z,89.30
2023-01-10T00:36:50.405Z,89.30
2023-01-10T00:36:59.812Z,89.30
2023-01-10T00:37:09.191Z,89.30
2023-01-10T00:37:18.584Z,89.20
2023-01-10T00:37:27.976Z,89.30
2023-01-10T00:37:37.396Z,89.20
2023-01-10T00:37:46.808Z,89.30
2023-01-10T00:38:05.727Z,89.30
2023-01-10T00:38:15.041Z,89.30
2023-01-10T00:38:24.463Z,89.30
2023-01-10T00:38:33.851Z,89.30
2023-01-10T00:38:43.264Z,89.30
2023-01-10T00:38:52.670Z,89.40
2023-01-10T00:39:02.108Z,89.40
2023-01-10T00:39:11.500Z,89.50
2023-01-10T00:39:20.946Z,89.50
2023-01-10T00:39:30.391Z,89.60
2023-01-10T00:39:39.787Z,89.60
2023-01-10T00:39:49.210Z,89.60
2023-01-10T00:39:58.618Z,89.70
2023-01-10T00:40:08.013Z,89.70
2023-01-10T00:40:17.417Z,89.70
2023-01-10T00:40:26.822Z,89.70
2023-01-10T00:40:45.675Z,89.80
2023-01-10T00:40:55.104Z,89.80
2023-01-10T00:41:04.507Z,89.90
2023-01-10T00:41:13.938Z,89.90
2023-01-10T00:41:23.337Z,90.00
2023-01-10T00:41:32.804Z,90.00
2023-01-10T00:41:42.198Z,90.00
2023-01-10T00:41:51.602Z,90.00
2023-01-10T00:42:01.009Z,90.00
2023-01-10T00:42:10.415Z,90.00
2023-01-10T00:42:19.836Z,90.00
2023-01-10T00:42:29.227Z,90.00
2023-01-10T00:42:38.633Z,90.00
2023-01-10T00:42:48.030Z,90.00
2023-01-10T00:42:57.457Z,90.00
2023-01-10T00:43:06.863Z,89.90
2023-01-10T00:43:25.647Z,89.80
2023-01-10T00:43:35.056Z,89.80
2023-01-10T00:43:44.585Z,89.80
2023-01-10T00:43:54.024Z,89.80
2023-01-10T00:44:03.419Z,89.80
2023-01-10T00:44:12.924Z,89.80
2023-01-10T00:44:22.310Z,89.80
2023-01-10T00:44:31.708Z,89.80
2023-01-10T00:44:41.141Z,89.80
2023-01-10T00:44:50.569Z,89.80
2023-01-10T00:44:59.961Z,89.80
2023-01-10T00:45:09.353Z,89.80
2023-01-10T00:45:18.747Z,89.70
2023-01-10T00:45:28.139Z,89.70
2023-01-10T00:45:37.530Z,89.70
2023-01-10T00:45:46.946Z,89.60
2023-01-10T00:46:05.825Z,89.60
2023-01-10T00:46:15.228Z,89.60
2023-01-10T00:46:24.711Z,89.60
2023-01-10T00:46:33.991Z,89.60
2023-01-10T00:46:43.351Z,89.60
2023-01-10T00:46:52.758Z,89.60
2023-01-10T00:47:02.169Z,89.60
2023-01-10T00:47:11.611Z,89.50
2023-01-10T00:47:21.032Z,89.50
2023-01-10T00:47:30.446Z,89.50
2023-01-10T00:47:39.837Z,89.40
2023-01-10T00:47:49.254Z,89.40
2023-01-10T00:47:58.642Z,89.40
2023-01-10T00:48:08.051Z,89.40
2023-01-10T00:48:17.468Z,89.40
2023-01-10T00:48:26.937Z,89.40
2023-01-10T00:48:45.788Z,89.40
2023-01-10T00:48:55.201Z,89.30
2023-01-10T00:49:04.693Z,89.30
2023-01-10T00:49:14.078Z,89.30
2023-01-10T00:49:23.480Z,89.20
2023-01-10T00:49:32.886Z,89.20
2023-01-10T00:49:42.303Z,89.20
2023-01-10T00:49:51.729Z,89.20
2023-01-10T00:50:01.155Z,89.10
2023-01-10T00:50:10.538Z,89.10
2023-01-10T00:50:19.960Z,89.10
2023-01-10T00:50:29.387Z,89.10
2023-01-10T00:50:38.789Z,89.10
2023-01-10T00:50:48.223Z,89.10
2023-01-10T00:50:57.632Z,89.10
2023-01-10T00:51:07.096Z,89.10
2023-01-10T00:51:16.513Z,88.70
2023-01-10T00:51:35.435Z,89.30
2023-01-10T00:51:44.837Z,89.30
2023-01-10T00:51:54.254Z,89.40
2023-01-10T00:52:03.689Z,89.50
2023-01-10T00:52:13.116Z,89.60
2023-01-10T00:52:22.532Z,89.70
2023-01-10T00:52:31.935Z,89.80
2023-01-10T00:52:41.390Z,90.00
2023-01-10T00:52:50.814Z,90.00
2023-01-10T00:53:00.223Z,90.10
2023-01-10T00:53:09.653Z,90.20
2023-01-10T00:53:19.044Z,90.30
2023-01-10T00:53:28.445Z,90.40
2023-01-10T00:53:37.873Z,90.40
2023-01-10T00:53:47.269Z,90.50
2023-01-10T00:53:56.669Z,90.60
2023-01-10T00:54:15.549Z,90.80
2023-01-10T00:54:24.973Z,90.90
2023-01-10T00:54:34.387Z,91.00
2023-01-10T00:54:43.792Z,91.10
2023-01-10T00:54:53.191Z,91.10
2023-01-10T00:55:02.660Z,90.50
2023-01-10T00:55:12.097Z,91.40
2023-01-10T00:55:21.502Z,91.40
2023-01-10T00:55:30.907Z,91.60
2023-01-10T00:55:40.304Z,91.70
2023-01-10T00:55:49.716Z,91.80
2023-01-10T00:55:59.135Z,91.90
2023-01-10T00:56:08.569Z,92.10
2023-01-10T00:56:17.986Z,92.10
2023-01-10T00:56:27.399Z,92.20
2023-01-10T00:56:36.827Z,92.30
2023-01-10T00:56:55.669Z,92.50
2023-01-10T00:57:05.090Z,92.60
2023-01-10T00:57:14.497Z,92.80
2023-01-10T00:57:23.914Z,92.90
2023-01-10T00:57:33.352Z,93.00
2023-01-10T00:57:42.817Z,93.10
2023-01-10T00:57:52.246Z,93.20
2023-01-10T00:58:01.647Z,93.30
2023-01-10T00:58:11.105Z,93.40
2023-01-10T00:58:20.510Z,93.50
2023-01-10T00:58:29.908Z,93.60
2023-01-10T00:58:39.300Z,93.70
2023-01-10T00:58:48.712Z,93.80
2023-01-10T00:58:58.167Z,94.00
2023-01-10T00:59:07.581Z,94.10
2023-01-10T00:59:16.980Z,94.20
2023-01-10T00:59:35.825Z,94.40
2023-01-10T00:59:45.243Z,94.50
2023-01-10T00:59:54.648Z,94.60
2023-01-10T01:00:04.066Z,94.80
2023-01-10T01:00:13.464Z,94.90
2023-01-10T01:00:22.881Z,95.00
2023-01-10T01:00:32.279Z,95.00
2023-01-10T01:00:41.695Z,95.00
2023-01-10T01:00:51.176Z,95.10
2023-01-10T01:01:00.645Z,95.20
2023-01-10T01:01:10.034Z,95.20
2023-01-10T01:01:19.476Z,95.30
2023-01-10T01:01:28.871Z,95.40
2023-01-10T01:01:38.342Z,95.50
2023-01-10T01:01:47.738Z,95.60
2023-01-10T01:01:57.042Z,95.70
2023-01-10T01:02:15.925Z,95.80
2023-01-10T01:02:25.345Z,95.90
2023-01-10T01:02:34.791Z,96.00
2023-01-10T01:02:44.124Z,96.00
2023-01-10T01:02:53.529Z,96.10
2023-01-10T01:03:02.969Z,96.30
2023-01-10T01:03:12.283Z,96.40
2023-01-10T01:03:21.687Z,96.40
2023-01-10T01:03:31.072Z,96.40
2023-01-10T01:03:40.476Z,96.60
2023-01-10T01:03:49.926Z,96.80
2023-01-10T01:03:59.333Z,96.90
2023-01-10T01:04:08.778Z,97.00
2023-01-10T01:04:18.215Z,97.10
2023-01-10T01:04:27.696Z,97.10
2023-01-10T01:04:37.089Z,97.20
2023-01-10T01:04:46.529Z,97.10
2023-01-10T01:05:05.403Z,97.50
2023-01-10T01:05:14.829Z,97.60
2023-01-10T01:05:24.235Z,97.60
2023-01-10T01:05:33.638Z,97.60
2023-01-10T01:05:43.041Z,97.70
2023-01-10T01:05:52.497Z,97.70
2023-01-10T01:06:01.901Z,97.70
2023-01-10T01:06:11.395Z,97.80
2023-01-10T01:06:20.792Z,98.00
2023-01-10T01:06:30.192Z,97.30
2023-01-10T01:06:39.621Z,98.00
2023-01-10T01:06:49.048Z,98.00
2023-01-10T01:07:00.049Z,98.10
2023-01-10T01:07:07.844Z,98.10
2023-01-10T01:07:17.252Z,98.20
2023-01-10T01:07:26.662Z,98.20
2023-01-10T01:07:45.538Z,98.30
2023-01-10T01:07:54.958Z,98.30
2023-01-10T01:08:04.370Z,98.40
2023-01-10T01:08:13.745Z,98.40
2023-01-10T01:08:23.153Z,98.50
2023-01-10T01:08:32.582Z,98.60
2023-01-10T01:08:41.990Z,98.70
2023-01-10T01:08:51.420Z,98.70
2023-01-10T01:09:00.843Z,98.70
2023-01-10T01:09:10.262Z,99.00
2023-01-10T01:09:19.664Z,98.90
2023-01-10T01:09:29.144Z,98.90
2023-01-10T01:09:38.562Z,98.90
2023-01-10T01:09:47.970Z,99.00
2023-01-10T01:09:57.389Z,99.00
2023-01-10T01:10:06.822Z,99.00
2023-01-10T01:10:25.689Z,99.20
2023-01-10T01:10:35.129Z,99.20
2023-01-10T01:10:44.533Z,99.20
2023-01-10T01:10:53.988Z,99.30
2023-01-10T01:11:03.398Z,99.30
2023-01-10T01:11:12.808Z,99.30
2023-01-10T01:11:22.217Z,99.40
2023-01-10T01:11:31.624Z,99.40
2023-01-10T01:11:41.066Z,99.50
2023-01-10T01:11:50.483Z,99.50
2023-01-10T01:11:59.889Z,99.50
2023-01-10T01:12:09.323Z,99.50
2023-01-10T01:12:18.748Z,99.60
2023-01-10T01:12:28.167Z,99.60
2023-01-10T01:12:37.589Z,99.60
2023-01-10T01:12:47.001Z,99.70
2023-01-10T01:13:05.850Z,99.70
2023-01-10T01:13:15.257Z,99.80
2023-01-10T01:13:24.659Z,99.80
2023-01-10T01:13:34.086Z,99.80
2023-01-10T01:13:43.508Z,99.80
2023-01-10T01:13:52.916Z,99.90
2023-01-10T01:14:02.358Z,99.90
2023-01-10T01:14:11.737Z,99.90
2023-01-10T01:14:21.152Z,99.90
2023-01-10T01:14:30.554Z,99.90
2023-01-10T01:14:39.972Z,99.90
2023-01-10T01:14:49.383Z,99.90
2023-01-10T01:14:58.781Z,99.90
2023-01-10T01:15:08.191Z,99.90
2023-01-10T01:15:17.579Z,99.90
2023-01-10T01:15:26.999Z,99.90
2023-01-10T01:15:46.017Z,99.90
2023-01-10T01:15:55.320Z,99.90
2023-01-10T01:16:04.717Z,99.90
2023-01-10T01:16:14.088Z,99.90
2023-01-10T01:16:23.467Z,99.90
2023-01-10T01:16:32.860Z,99.90
2023-01-10T01:16:42.285Z,99.90
2023-01-10T01:16:51.747Z,99.90
2023-01-10T01:17:01.145Z,99.90
2023-01-10T01:17:10.552Z,99.90
2023-01-10T01:17:19.952Z,99.90
2023-01-10T01:17:29.350Z,99.90
2023-01-10T01:17:38.785Z,99.90
2023-01-10T01:17:48.209Z,99.90
2023-01-10T01:17:57.632Z,99.90
2023-01-10T01:18:07.078Z,99.90
2023-01-10T01:18:16.473Z,99.90
2023-01-10T01:18:35.310Z,99.90
2023-01-10T01:18:44.710Z,99.90
2023-01-10T01:18:54.106Z,99.90
2023-01-10T01:19:03.538Z,99.90
2023-01-10T01:19:12.965Z,99.90
2023-01-10T01:19:22.366Z,99.90
2023-01-10T01:19:31.788Z,99.90
2023-01-10T01:19:41.185Z,99.90
2023-01-10T01:19:50.604Z,99.90
2023-01-10T01:20:00.044Z,99.90
2023-01-10T01:20:09.418Z,99.90
2023-01-10T01:20:18.833Z,99.90
2023-01-10T01:20:28.248Z,99.90
2023-01-10T01:20:37.665Z,99.90
2023-01-10T01:20:47.082Z,99.90
2023-01-10T01:20:56.503Z,99.90
2023-01-10T01:21:08.979Z,99.90
2023-01-10T01:21:18.392Z,99.90
2023-01-10T01:21:27.814Z,99.90
2023-01-10T01:21:37.174Z,99.90
2023-01-10T01:21:46.582Z,99.90
2023-01-10T01:22:05.414Z,99.90
2023-01-10T01:22:14.824Z,99.90
2023-01-10T01:22:24.228Z,99.90
2023-01-10T01:22:33.641Z,99.90
2023-01-10T01:22:43.059Z,99.90
2023-01-10T01:22:52.467Z,99.90
2023-01-10T01:23:01.909Z,99.90
2023-01-10T01:23:11.589Z,99.90
2023-01-10T01:23:21.024Z,99.90
2023-01-10T01:23:30.461Z,99.90
2023-01-10T01:23:39.879Z,99.90
2023-01-10T01:23:49.300Z,99.90
2023-01-10T01:23:58.719Z,99.90
2023-01-10T01:24:08.183Z,99.90
2023-01-10T01:24:17.603Z,99.90
2023-01-10T01:24:27.017Z,99.90
2023-01-10T01:24:36.445Z,99.90
2023-01-10T01:24:55.246Z,99.90
2023-01-10T01:25:04.639Z,99.90
2023-01-10T01:25:14.025Z,99.90
2023-01-10T01:25:23.434Z,99.90
2023-01-10T01:25:32.838Z,99.90
2023-01-10T01:25:42.249Z,99.90
2023-01-10T01:25:51.667Z,99.90
2023-01-10T01:26:01.118Z,99.90
2023-01-10T01:26:10.559Z,99.90
2023-01-10T01:26:19.973Z,99.90
2023-01-10T01:26:29.369Z,99.90
2023-01-10T01:26:38.769Z,99.90
2023-01-10T01:26:48.165Z,99.90
2023-01-10T01:26:57.574Z,99.90
2023-01-10T01:27:06.993Z,99.90
2023-01-10T01:27:25.806Z,99.90
2023-01-10T01:27:35.205Z,99.90
2023-01-10T01:27:44.597Z,99.90
2023-01-10T01:27:54.006Z,99.90
2023-01-10T01:28:03.413Z,99.90
2023-01-10T01:28:12.844Z,99.90
2023-01-10T01:28:22.275Z,99.90
2023-01-10T01:28:31.694Z,99.90
2023-01-10T01:28:41.105Z,99.90
2023-01-10T01:28:50.542Z,99.90
2023-01-10T01:28:59.939Z,99.90
2023-01-10T01:29:43.230Z,99.90
2023-01-10T01:29:51.150Z,99.90
2023-01-10T01:30:00.558Z,99.90
2023-01-10T01:30:09.993Z,99.90
2023-01-10T01:30:19.415Z,99.90
2023-01-10T01:30:28.860Z,99.90
2023-01-10T01:30:38.253Z,99.90
2023-01-10T01:30:47.724Z,99.90
2023-01-10T01:30:57.125Z,99.90
2023-01-10T01:31:06.656Z,99.90
2023-01-10T01:31:16.015Z,99.90
2023-01-10T01:31:25.446Z,99.90
2023-01-10T01:31:34.812Z,99.90
2023-01-10T01:31:44.231Z,99.90
2023-01-10T01:31:53.703Z,99.90
2023-01-10T01:32:03.132Z,99.90
2023-01-10T01:32:12.535Z,99.90
2023-01-10T01:32:21.952Z,99.90
2023-01-10T01:32:31.364Z,99.90
2023-01-10T01:32:40.753Z,99.90
2023-01-10T01:32:50.157Z,99.90
2023-01-10T01:32:59.569Z,99.90
2023-01-10T01:33:08.986Z,99.90
2023-01-10T01:33:18.386Z,99.90
2023-01-10T01:33:27.799Z,99.90
2023-01-10T01:33:37.208Z,99.90
2023-01-10T01:33:46.636Z,99.90
2023-01-10T01:33:56.036Z,99.90
2023-01-10T01:34:05.470Z,99.90
2023-01-10T01:34:14.885Z,99.90
2023-01-10T01:34:24.293Z,99.90
2023-01-10T01:34:33.711Z,99.90
2023-01-10T01:34:43.132Z,99.90
2023-01-10T01:34:52.569Z,99.90
2023-01-10T01:35:01.972Z,99.90
2023-01-10T01:35:11.435Z,99.90
2023-01-10T01:35:20.848Z,99.90
2023-01-10T01:35:30.271Z,99.90
2023-01-10T01:35:39.658Z,99.90
2023-01-10T01:35:49.099Z,99.90
2023-01-10T01:35:58.508Z,99.90
2023-01-10T01:36:07.923Z,99.90
2023-01-10T01:36:17.316Z,99.90
2023-01-10T01:36:26.727Z,99.90
2023-01-10T01:36:45.564Z,99.90
2023-01-10T01:36:55.001Z,99.90
2023-01-10T01:37:04.412Z,99.90
2023-01-10T01:37:13.838Z,99.90
2023-01-10T01:37:23.263Z,99.90
2023-01-10T01:37:32.711Z,99.90
2023-01-10T01:37:42.122Z,99.90
2023-01-10T01:37:51.524Z,99.90
2023-01-10T01:38:00.941Z,99.90
2023-01-10T01:38:10.366Z,99.90
2023-01-10T01:38:19.843Z,99.90
2023-01-10T01:38:29.240Z,99.90
2023-01-10T01:38:38.659Z,99.90
2023-01-10T01:38:48.075Z,99.90
2023-01-10T01:38:57.499Z,99.90
2023-01-10T01:39:06.940Z,99.90
2023-01-10T01:39:25.757Z,99.90
2023-01-10T01:39:35.179Z,99.90
2023-01-10T01:39:44.598Z,99.90
2023-01-10T01:39:54.019Z,99.90
2023-01-10T01:40:03.455Z,99.90
2023-01-10T01:40:12.828Z,99.90
2023-01-10T01:40:22.246Z,99.90
2023-01-10T01:40:31.709Z,99.90
2023-01-10T01:40:41.102Z,99.90
2023-01-10T01:40:50.516Z,99.90
2023-01-10T01:40:59.932Z,99.90
2023-01-10T01:41:09.388Z,99.90
2023-01-10T01:41:18.849Z,99.90
2023-01-10T01:41:28.337Z,99.90
2023-01-10T01:41:37.755Z,99.90
2023-01-10T01:41:47.193Z,99.90
2023-01-10T01:41:56.591Z,99.90
2023-01-10T01:42:15.422Z,99.90
2023-01-10T01:42:24.844Z,99.90
2023-01-10T01:42:34.252Z,99.90
2023-01-10T01:42:43.637Z,99.90
2023-01-10T01:42:53.049Z,99.90
2023-01-10T01:43:02.452Z,99.90
2023-01-10T01:43:11.856Z,99.90
2023-01-10T01:43:21.319Z,99.90
2023-01-10T01:43:30.703Z,99.90
2023-01-10T01:43:40.135Z,99.90
2023-01-10T01:43:49.575Z,99.90
2023-01-10T01:43:59.028Z,99.90
2023-01-10T01:44:08.485Z,99.90
2023-01-10T01:44:17.950Z,99.90
2023-01-10T01:44:27.334Z,99.90
2023-01-10T01:44:36.771Z,99.90
2023-01-10T01:44:55.549Z,99.90
2023-01-10T01:45:04.977Z,99.90
2023-01-10T01:45:14.386Z,99.90
2023-01-10T01:45:23.785Z,99.90
2023-01-10T01:45:33.229Z,99.90
2023-01-10T01:45:42.633Z,99.90
2023-01-10T01:45:52.069Z,99.90
2023-01-10T01:46:01.524Z,99.90
2023-01-10T01:46:10.885Z,99.90
2023-01-10T01:46:20.360Z,99.90
2023-01-10T01:46:29.785Z,99.90
2023-01-10T01:46:39.167Z,99.90
2023-01-10T01:46:48.526Z,99.90
2023-01-10T01:46:57.955Z,99.90
2023-01-10T01:47:07.353Z,99.90
2023-01-10T01:47:16.774Z,99.90
2023-01-10T01:47:35.647Z,99.90
2023-01-10T01:47:45.050Z,99.90
2023-01-10T01:47:54.468Z,99.90
2023-01-10T01:48:03.868Z,99.90
2023-01-10T01:48:13.271Z,99.90
2023-01-10T01:48:22.683Z,99.90
2023-01-10T01:48:32.110Z,99.90
2023-01-10T01:48:41.534Z,99.90
2023-01-10T01:48:50.975Z,99.90
2023-01-10T01:49:00.411Z,99.90
2023-01-10T01:49:09.825Z,99.90
2023-01-10T01:49:19.248Z,99.90
2023-01-10T01:49:28.661Z,99.90
2023-01-10T01:49:38.074Z,99.90
2023-01-10T01:49:47.495Z,99.90
2023-01-10T01:49:56.914Z,99.90
2023-01-10T01:50:15.769Z,99.90
2023-01-10T01:50:25.190Z,99.90
2023-01-10T01:50:34.617Z,99.90
2023-01-10T01:50:44.027Z,99.90
2023-01-10T01:50:53.450Z,99.90
2023-01-10T01:51:02.863Z,99.90
2023-01-10T01:51:12.292Z,99.90
2023-01-10T01:51:21.716Z,99.90
2023-01-10T01:51:31.142Z,99.90
2023-01-10T01:51:40.553Z,99.90
2023-01-10T01:51:49.976Z,99.90
2023-01-10T01:51:59.380Z,99.90
2023-01-10T01:52:08.813Z,99.90
2023-01-10T01:52:18.238Z,99.90
2023-01-10T01:52:27.652Z,99.90
2023-01-10T01:52:37.105Z,99.90
2023-01-10T01:52:46.531Z,99.90
2023-01-10T01:53:05.361Z,99.90
2023-01-10T01:53:14.791Z,99.90
2023-01-10T01:53:24.182Z,99.90
2023-01-10T01:53:33.618Z,99.90
2023-01-10T01:53:43.030Z,99.90
2023-01-10T01:53:52.447Z,99.90
2023-01-10T01:54:01.873Z,99.90
2023-01-10T01:54:15.071Z,99.90
2023-01-10T01:54:24.478Z,99.90
2023-01-10T01:54:33.915Z,99.90
2023-01-10T01:54:43.328Z,99.90
2023-01-10T01:54:52.750Z,99.90
2023-01-10T01:55:02.197Z,99.90
2023-01-10T01:55:11.591Z,99.90
2023-01-10T01:55:21.010Z,99.90
2023-01-10T01:55:30.429Z,99.90
2023-01-10T01:55:39.838Z,99.90
2023-01-10T01:55:49.237Z,99.90
2023-01-10T01:55:58.631Z,99.90
2023-01-10T01:56:08.049Z,99.90
2023-01-10T01:56:17.479Z,99.90
2023-01-10T01:56:26.885Z,99.90
2023-01-10T01:56:45.695Z,99.90
2023-01-10T01:56:55.117Z,99.90
2023-01-10T01:57:04.538Z,99.90
2023-01-10T01:57:13.990Z,99.90
2023-01-10T01:57:23.379Z,99.90
2023-01-10T01:57:32.795Z,99.90
2023-01-10T01:57:42.200Z,99.90
2023-01-10T01:57:51.622Z,99.90
2023-01-10T01:58:01.073Z,99.90
2023-01-10T01:58:10.509Z,99.90
2023-01-10T01:58:19.950Z,99.90
2023-01-10T01:58:29.399Z,99.90
2023-01-10T01:58:38.857Z,99.90
2023-01-10T01:58:48.243Z,99.90
2023-01-10T01:58:57.674Z,99.90
2023-01-10T01:59:07.097Z,99.90
2023-01-10T01:59:16.546Z,99.90
2023-01-10T01:59:35.318Z,99.90
2023-01-10T01:59:44.750Z,99.90
2023-01-10T01:59:54.120Z,99.90
2023-01-10T02:00:03.537Z,99.90
2023-01-10T02:00:12.919Z,99.90
2023-01-10T02:00:22.325Z,99.90
2023-01-10T02:00:31.750Z,99.90
2023-01-10T02:00:41.132Z,99.90
2023-01-10T02:00:50.575Z,99.90
2023-01-10T02:00:59.993Z,99.90
2023-01-10T02:01:09.420Z,99.90
2023-01-10T02:01:18.879Z,99.90
2023-01-10T02:01:28.290Z,99.90
2023-01-10T02:01:37.774Z,99.90
2023-01-10T02:01:47.075Z,99.90
2023-01-10T02:02:05.833Z,99.90
2023-01-10T02:02:15.265Z,99.90
2023-01-10T02:02:24.657Z,99.90
2023-01-10T02:02:34.042Z,99.90
2023-01-10T02:02:51.143Z,99.90
2023-01-10T02:03:02.286Z,99.90
2023-01-10T02:03:03.445Z,99.90
2023-01-10T02:03:11.842Z,99.90
2023-01-10T02:03:21.180Z,99.90
2023-01-10T02:03:30.668Z,99.90
2023-01-10T02:03:39.989Z,99.90
2023-01-10T02:03:49.404Z,99.90
2023-01-10T02:03:58.842Z,99.90
2023-01-10T02:04:08.245Z,99.90
2023-01-10T02:04:17.674Z,99.90
2023-01-10T02:04:27.043Z,99.90
2023-01-10T02:04:36.460Z,99.90
2023-01-10T02:04:55.221Z,99.90
2023-01-10T02:05:04.627Z,99.90
2023-01-10T02:05:14.019Z,99.90
2023-01-10T02:05:23.433Z,99.90
2023-01-10T02:05:32.862Z,99.90
2023-01-10T02:05:42.301Z,99.90
2023-01-10T02:05:51.654Z,99.90
2023-01-10T02:06:01.047Z,99.90
2023-01-10T02:06:10.465Z,99.90
2023-01-10T02:06:19.882Z,99.90
2023-01-10T02:06:29.308Z,99.90
2023-01-10T02:06:38.739Z,99.90
2023-01-10T02:06:48.115Z,99.90
2023-01-10T02:06:57.561Z,99.90
2023-01-10T02:07:06.959Z,99.90
2023-01-10T02:07:25.755Z,99.80
2023-01-10T02:07:35.170Z,99.60
2023-01-10T02:07:44.589Z,99.50
2023-01-10T02:07:53.997Z,99.40
2023-01-10T02:08:03.388Z,99.30
2023-01-10T02:08:12.790Z,99.10
2023-01-10T02:08:22.197Z,99.00
2023-01-10T02:08:31.634Z,98.80
2023-01-10T02:08:41.051Z,98.70
2023-01-10T02:08:50.459Z,98.60